createdAt,value
2023-02-03T00:09:01.746Z,3.01
2023-02-03T00:11:32.203Z,2.62
2023-02-03T00:13:58.865Z,3.00
2023-02-03T00:16:25.517Z,2.87
2023-02-03T00:18:52.095Z,2.59
2023-02-03T00:21:18.785Z,2.50
2023-02-03T00:24:05.592Z,2.71
2023-02-03T00:26:57.055Z,2.51
2023-02-03T00:29:26.020Z,2.54
2023-02-03T03:04:05.364Z,2.25
2023-02-03T04:52:06.967Z,2.11
2023-02-03T04:54:34.288Z,2.30
2023-02-03T04:57:01.198Z,2.13
2023-02-03T04:59:27.841Z,2.17
2023-02-03T05:01:54.413Z,2.56
2023-02-03T05:04:21.360Z,2.69
2023-02-03T05:09:24.471Z,2.35
2023-02-03T05:11:51.133Z,2.76
2023-02-03T05:14:17.808Z,2.62
2023-02-03T05:16:45.434Z,2.45
2023-02-03T05:19:13.413Z,2.59
2023-02-03T05:21:40.362Z,2.49
2023-02-03T07:42:15.767Z,3.17
2023-02-03T09:43:46.076Z,4.45
2023-02-03T09:46:24.883Z,3.71
2023-02-03T09:49:22.509Z,4.19
2023-02-03T09:51:57.955Z,4.27
2023-02-03T09:58:23.039Z,3.99
2023-02-03T10:01:05.670Z,4.24
2023-02-03T10:03:48.020Z,4.57
2023-02-03T10:06:24.034Z,4.57
2023-02-03T10:09:09.535Z,4.63
2023-02-03T10:11:49.613Z,4.81
2023-02-03T10:14:35.970Z,4.87
2023-02-03T10:17:14.543Z,4.67
2023-02-03T10:19:56.004Z,4.71
2023-02-03T10:22:29.280Z,4.69
2023-02-03T10:25:05.730Z,4.65
2023-02-03T10:27:35.050Z,4.80
2023-02-03T10:30:12.342Z,4.72
2023-02-03T10:32:38.918Z,4.64
2023-02-03T10:35:12.695Z,4.78
2023-02-03T10:40:16.965Z,4.53
2023-02-03T10:43:07.721Z,4.32
2023-02-03T10:45:38.485Z,4.23
2023-02-03T10:48:13.281Z,4.27
2023-02-03T10:50:44.593Z,4.34
2023-02-03T10:53:54.986Z,4.14
2023-02-03T10:59:31.137Z,4.11
2023-02-03T11:01:58.127Z,3.90
2023-02-03T11:04:33.035Z,4.23
2023-02-03T11:07:37.373Z,4.10
2023-02-03T11:10:04.153Z,3.76
2023-02-03T11:12:30.907Z,3.91
2023-02-03T11:15:05.493Z,3.97
2023-02-03T11:17:36.776Z,3.92
2023-02-03T11:20:14.336Z,3.99
2023-02-03T11:22:43.306Z,3.86
2023-02-03T11:25:25.922Z,3.54
2023-02-03T11:27:55.995Z,3.28
2023-02-03T11:30:26.290Z,3.39
2023-02-03T11:32:53.668Z,3.46
2023-02-03T11:35:28.137Z,3.73
2023-02-03T11:37:57.593Z,3.57
2023-02-03T11:40:34.609Z,3.75
2023-02-03T11:43:15.864Z,3.39
2023-02-03T11:45:44.714Z,3.29
2023-02-03T11:48:11.224Z,3.35
2023-02-03T11:50:43.766Z,3.11
2023-02-03T11:53:56.312Z,3.08
2023-02-03T11:56:29.538Z,3.00
2023-02-03T11:59:24.721Z,2.69
2023-02-03T12:02:23.138Z,2.97
2023-02-03T12:04:49.717Z,3.22
2023-02-03T12:44:33.337Z,3.10
2023-02-03T12:47:29.481Z,3.27
2023-02-03T12:50:18.257Z,3.14
2023-02-03T12:52:55.654Z,3.33
2023-02-03T12:55:33.723Z,3.16
2023-02-03T12:58:46.388Z,3.23
2023-02-03T13:01:21.064Z,3.23
2023-02-03T13:04:12.985Z,3.55
2023-02-03T13:07:09.899Z,3.40
2023-02-03T13:10:19.263Z,3.60
2023-02-03T13:12:51.615Z,3.58
2023-02-03T13:15:23.922Z,3.22
2023-02-03T13:21:57.974Z,3.46
2023-02-03T13:39:17.445Z,3.87
2023-02-03T13:53:22.422Z,4.12
2023-02-03T13:55:58.087Z,4.26
2023-02-03T13:58:30.515Z,4.07
2023-02-03T14:00:56.994Z,4.05
2023-02-03T14:03:26.690Z,4.15
2023-02-03T14:05:55.503Z,4.23
2023-02-03T14:08:28.095Z,4.14
2023-02-03T14:11:32.434Z,4.16
2023-02-03T14:14:35.821Z,3.68
2023-02-03T14:17:02.559Z,4.07
2023-02-03T14:19:29.091Z,3.83
2023-02-03T14:21:59.418Z,3.93
2023-02-03T14:24:48.540Z,3.96
2023-02-03T14:27:28.080Z,4.08
2023-02-03T14:30:12.635Z,4.42
2023-02-03T14:39:17.723Z,4.39
2023-02-03T14:41:58.544Z,4.14
2023-02-03T14:44:36.964Z,4.41
2023-02-03T14:47:08.969Z,4.47
2023-02-03T14:49:46.687Z,4.47
2023-02-03T14:53:11.025Z,4.45
2023-02-03T14:56:05.133Z,4.39
2023-02-03T14:58:43.021Z,4.66
2023-02-03T15:01:25.683Z,4.60
2023-02-03T15:04:10.962Z,4.44
2023-02-03T15:06:49.041Z,4.74
2023-02-03T15:09:32.953Z,4.54
2023-02-03T15:11:59.816Z,4.65
2023-02-03T15:14:33.886Z,4.57
2023-02-03T15:17:03.402Z,4.23
2023-02-03T15:19:35.163Z,4.43
2023-02-03T15:22:01.867Z,4.47
2023-02-03T15:24:35.740Z,4.60
2023-02-03T15:27:02.536Z,4.57
2023-02-03T15:29:31.648Z,4.73
2023-02-03T15:32:13.676Z,4.57
2023-02-03T15:34:46.757Z,4.71
2023-02-03T15:37:19.135Z,4.76
2023-02-03T15:40:03.828Z,4.76
2023-02-03T15:42:59.630Z,4.85
2023-02-03T15:45:39.964Z,4.72
2023-02-03T15:48:14.741Z,4.87
2023-02-03T15:50:47.570Z,4.88
2023-02-03T15:53:21.546Z,4.98
2023-02-03T15:55:53.078Z,5.00
2023-02-03T15:58:26.617Z,5.06
2023-02-03T16:01:03.777Z,4.99
2023-02-03T16:03:41.160Z,5.13
2023-02-03T16:06:22.445Z,5.05
2023-02-03T16:08:51.977Z,5.15
2023-02-03T16:11:33.000Z,5.17
2023-02-03T16:14:04.872Z,5.25
2023-02-03T16:16:47.215Z,5.30
2023-02-03T16:19:23.219Z,5.22
2023-02-03T16:21:49.759Z,5.26
2023-02-03T16:24:40.373Z,5.27
2023-02-03T16:27:31.835Z,5.24
2023-02-03T16:30:26.258Z,5.20
2023-02-03T16:33:34.122Z,5.34
2023-02-03T16:36:31.372Z,5.23
2023-02-03T16:39:20.720Z,4.54
2023-02-03T16:42:06.420Z,4.78
2023-02-03T16:44:51.699Z,4.46
2023-02-03T16:47:45.608Z,4.59
2023-02-03T16:50:38.987Z,4.56
2023-02-03T16:53:11.292Z,4.61
2023-02-03T16:55:38.190Z,4.94
2023-02-03T16:58:04.731Z,4.81
2023-02-03T17:00:31.491Z,4.96
2023-02-03T17:02:58.784Z,5.09
2023-02-03T17:05:25.383Z,5.21
2023-02-03T17:07:51.973Z,5.09
2023-02-03T17:10:18.630Z,5.09
2023-02-03T17:12:45.207Z,5.22
2023-02-03T17:15:11.833Z,5.24
2023-02-03T17:17:38.439Z,5.10
2023-02-03T17:20:05.433Z,4.85
2023-02-03T17:22:32.249Z,5.03
2023-02-03T17:24:58.818Z,5.22
2023-02-03T17:27:25.486Z,5.39
2023-02-03T17:29:52.058Z,5.35
2023-02-03T17:32:18.592Z,5.37
2023-02-03T17:34:45.286Z,5.08
2023-02-03T17:37:12.215Z,5.26
2023-02-03T17:53:25.627Z,5.36
2023-02-03T17:55:52.299Z,5.53
2023-02-03T17:58:18.875Z,5.66
2023-02-03T18:00:45.406Z,5.61
2023-02-03T18:03:11.946Z,5.81
2023-02-03T18:05:38.922Z,5.89
2023-02-03T18:08:12.430Z,5.95
2023-02-03T18:10:43.552Z,6.07
2023-02-03T18:13:10.403Z,6.10
2023-02-03T18:15:38.534Z,6.10
2023-02-03T18:18:05.246Z,6.05
2023-02-03T18:20:31.862Z,6.05
2023-02-03T18:22:58.411Z,6.04
2023-02-03T18:25:24.959Z,6.04
2023-02-03T18:27:52.277Z,5.99
2023-02-03T18:30:21.575Z,5.83
2023-02-03T18:32:52.554Z,5.88
2023-02-03T18:35:19.185Z,5.70
2023-02-03T18:37:45.865Z,5.69
2023-02-03T18:40:12.728Z,5.54
2023-02-03T18:42:39.353Z,5.79
2023-02-03T18:45:06.510Z,5.71
2023-02-03T18:47:33.632Z,5.74
2023-02-03T18:50:00.209Z,5.46
2023-02-03T18:52:27.442Z,5.27
2023-02-03T18:54:54.011Z,5.32
2023-02-03T18:57:22.549Z,5.40
2023-02-03T18:59:49.677Z,5.55
2023-02-03T19:02:16.402Z,5.63
2023-02-03T19:04:43.517Z,5.70
2023-02-03T19:07:12.313Z,5.59
2023-02-03T19:09:40.000Z,5.39
2023-02-03T19:12:07.584Z,5.46
2023-02-03T19:14:35.200Z,5.46
2023-02-03T19:17:02.781Z,5.26
2023-02-03T19:19:29.369Z,4.96
2023-02-03T19:22:05.106Z,5.17
2023-02-03T19:24:31.730Z,5.27
2023-02-03T19:27:01.239Z,5.19
2023-02-03T19:29:27.821Z,4.63
2023-02-03T19:31:54.490Z,4.86
2023-02-03T19:34:28.883Z,4.91
2023-02-03T19:37:15.572Z,4.75
2023-02-03T19:59:53.109Z,5.04
2023-02-03T21:12:50.193Z,3.87
2023-02-03T21:15:32.137Z,3.95
2023-02-03T22:47:06.447Z,4.51
